Wednesday, June 20, 2018, 10:48 AM EDT
Back to Local

KBML, Berlin Municipal Airport

Location: Milan, NH, United States Lat: 44.583
Local Time: 10:48 AM EDT (14:48 GMT) Lon: -71.183
Time Zone: US/Eastern Elev: 1158 ft

Show me the last for .
Show Coded

Time T Td Feel RH Dir Speed Gust Alt SLP Vis Weather Sky Remarks
2018-06-20 09:52 69 52 - 54 - Calm - 29.87 29.87 10 CLR None
2018-06-20 08:52 63 50 - 62 - Calm - 29.89 29.89 10 CLR None
2018-06-20 07:52 55 47 - 74 - Calm - 29.91 29.90 10 CLR 6-hr Min Temp (8am): 37.0°F
6-hr Max Temp (8am): 55.0°F
2018-06-20 06:52 45 44 - 96 - Calm - 29.92 29.92 10 CLR None
2018-06-20 06:32 44 43 - 95 - Calm - 29.92 - 10 SCT001 None
2018-06-20 06:22 42 42 - 100 - Calm - 29.91 - 3 BR BKN001 None
2018-06-20 06:20 42 42 - 100 - Calm - 29.91 - 1 BR VV001 None
2018-06-20 05:52 40 40 - 100 - Calm - 29.91 29.92 0 FG VV001 None
2018-06-20 05:13 39 39 - 100 - Calm - 29.91 - 0 FG VV001 None
2018-06-20 04:52 38 38 - 100 - Calm - 29.90 29.91 0 FG VV001 None
2018-06-20 04:47 37 37 - 100 - Calm - 29.90 - 0 BR VV001 None
2018-06-20 04:36 38 37 - 96 - Calm - 29.90 - 5 BR BKN001 None
2018-06-20 04:24 37 36 - 95 - Calm - 29.90 - 10 SCT001 None
2018-06-20 04:00 39 38 - 95 - Calm - 29.90 - 8 BKN001 None
2018-06-20 03:52 39 38 - 95 - Calm - 29.90 29.91 10 SCT001 None
2018-06-20 03:02 40 39 - 96 - Calm - 29.91 - 10 SCT001 None
2018-06-20 02:52 39 38 - 95 - Calm - 29.91 29.92 10 BKN001 None
2018-06-20 02:42 41 40 - 95 - Calm - 29.91 - 10 BKN001 None
2018-06-20 02:27 41 40 - 95 - Calm - 29.91 - 10 FEW001 None
2018-06-20 01:52 42 40 - 91 - Calm - 29.92 29.93 10 CLR 6-hr Min Temp (2am): 41.0°F
6-hr Max Temp (2am): 66.9°F
2018-06-20 00:52 44 43 - 95 - Calm - 29.92 29.93 10 CLR 24-hr Min Temp (1am): 43.0°F
24-hr Max Temp (1am): 72.0°F
2018-06-19 23:52 46 45 - 95 - Calm - 29.92 29.93 10 CLR None
2018-06-19 22:52 47 46 - 96 - Calm - 29.91 29.92 10 CLR None
2018-06-19 21:52 52 48 - 86 - Calm - 29.91 29.91 10 CLR None
2018-06-19 20:52 57 49 - 74 - Calm - 29.89 29.89 10 CLR None
2018-06-19 19:52 67 47 - 48 320° 7 - 29.87 29.86 10 CLR 6-hr Min Temp (8pm): 66.9°F
6-hr Max Temp (8pm): 72.0°F
2018-06-19 18:52 70 46 - 42 320° 7 17 29.85 29.84 10 CLR None
2018-06-19 17:52 70 47 - 43 340° 10 17 29.84 29.83 10 CLR None
2018-06-19 16:52 71 47 75 42 330° 9 17 29.83 29.82 10 FEW050 None
2018-06-19 15:52 71 47 75 42 350° 14 23 29.82 29.81 10 FEW050 None
2018-06-19 14:52 70 50 - 49 Variable 6 18 29.82 29.81 10 BKN049 None
2018-06-19 13:52 70 48 - 45 320° 9 22 29.81 29.80 10 CLR 6-hr Min Temp (2pm): 60.1°F
6-hr Max Temp (2pm): 70.0°F
2018-06-19 12:52 69 46 - 43 340° 16 21 29.82 29.81 10 CLR None
2018-06-19 11:52 66 48 - 52 330° 13 21 29.83 29.82 10 CLR None
2018-06-19 10:52 64 47 - 53 330° 16 26 29.83 29.82 10 CLR None

Support USWX by starting your Amazon purchase here.